createdAt,value
2019-04-05T00:01:33.594Z,11.45
2019-04-05T00:04:35.569Z,11.44
2019-04-05T00:07:37.640Z,11.43
2019-04-05T00:10:40.763Z,11.42
2019-04-05T00:13:42.706Z,11.46
2019-04-05T00:16:44.659Z,11.53
2019-04-05T00:19:47.987Z,11.58
2019-04-05T00:22:49.994Z,11.59
2019-04-05T00:25:51.956Z,11.54
2019-04-05T00:28:53.954Z,11.46
2019-04-05T00:31:55.920Z,11.33
2019-04-05T00:34:57.910Z,11.11
2019-04-05T00:37:59.995Z,10.90
2019-04-05T00:41:02.538Z,10.75
2019-04-05T00:44:04.753Z,10.68
2019-04-05T00:47:06.765Z,10.60
2019-04-05T00:50:09.784Z,10.51
2019-04-05T00:53:11.722Z,10.46
2019-04-05T00:56:13.635Z,10.39
2019-04-05T00:59:15.587Z,10.38
2019-04-05T01:02:17.515Z,10.26
2019-04-05T01:05:19.496Z,10.21
2019-04-05T01:08:21.473Z,10.09
2019-04-05T01:11:23.468Z,9.96
2019-04-05T01:14:26.664Z,9.86
2019-04-05T01:17:28.993Z,9.81
2019-04-05T01:20:34.533Z,9.66
2019-04-05T01:23:36.762Z,9.60
2019-04-05T01:26:40.465Z,9.52
2019-04-05T01:29:43.755Z,9.46
2019-04-05T01:32:46.510Z,9.49
2019-04-05T01:35:48.445Z,9.49
2019-04-05T01:38:50.555Z,9.51
2019-04-05T01:41:52.690Z,9.52
2019-04-05T01:44:54.807Z,9.52
2019-04-05T01:47:56.756Z,9.52
2019-04-05T01:50:58.710Z,9.50
2019-04-05T01:54:00.753Z,9.37
2019-04-05T01:57:02.759Z,9.24
2019-04-05T02:00:08.288Z,9.17
2019-04-05T02:03:10.309Z,9.07
2019-04-05T02:06:12.215Z,8.93
2019-04-05T02:09:14.344Z,8.85
2019-04-05T02:12:16.512Z,8.78
2019-04-05T02:15:24.549Z,8.78
2019-04-05T02:18:26.454Z,8.74
2019-04-05T02:21:28.434Z,8.69
2019-04-05T02:24:31.488Z,8.59
2019-04-05T02:27:33.399Z,8.56
2019-04-05T02:30:35.315Z,8.49
2019-04-05T02:33:38.406Z,8.43
2019-04-05T02:36:40.407Z,8.40
2019-04-05T02:39:42.462Z,8.32
2019-04-05T02:42:48.080Z,8.29
2019-04-05T02:45:51.021Z,8.37
2019-04-05T02:48:53.224Z,8.50
2019-04-05T02:51:57.654Z,8.64
2019-04-05T02:54:59.800Z,8.85
2019-04-05T02:58:03.658Z,8.99
2019-04-05T03:01:05.644Z,9.04
2019-04-05T03:04:08.427Z,9.10
2019-04-05T03:07:12.768Z,9.16
2019-04-05T03:10:53.754Z,9.27
2019-04-05T03:13:59.914Z,9.43
2019-04-05T03:17:03.793Z,9.44
2019-04-05T03:20:06.442Z,9.44
2019-04-05T03:23:09.510Z,9.46
2019-04-05T03:26:15.084Z,9.45
2019-04-05T03:29:17.147Z,9.46
2019-04-05T03:32:19.236Z,9.51
2019-04-05T03:35:21.264Z,9.51
2019-04-05T03:38:23.785Z,9.52
2019-04-05T03:41:26.019Z,9.50
2019-04-05T03:44:28.074Z,9.49
2019-04-05T03:47:30.436Z,9.48
2019-04-05T03:50:32.570Z,9.41
2019-04-05T03:53:34.755Z,9.31
2019-04-05T03:56:38.197Z,9.20
2019-04-05T03:59:40.550Z,9.16
2019-04-05T04:02:42.628Z,9.05
2019-04-05T04:05:44.728Z,8.91
2019-04-05T04:08:46.629Z,8.81
2019-04-05T04:11:48.789Z,8.77
2019-04-05T04:14:50.702Z,8.74
2019-04-05T04:17:53.433Z,8.72
2019-04-05T04:20:59.032Z,8.74
2019-04-05T04:24:01.564Z,8.78
2019-04-05T04:27:03.995Z,8.81
2019-04-05T04:30:06.871Z,8.84
2019-04-05T04:33:09.093Z,8.76
2019-04-05T04:36:13.058Z,8.72
2019-04-05T04:39:15.444Z,8.75
2019-04-05T04:42:18.034Z,8.87
2019-04-05T04:45:20.478Z,9.01
2019-04-05T04:48:23.082Z,9.06
2019-04-05T04:51:25.619Z,9.11
2019-04-05T04:54:27.595Z,9.11
2019-04-05T04:57:30.342Z,9.21
2019-04-05T05:00:33.385Z,9.32
2019-04-05T05:03:35.527Z,9.37
2019-04-05T05:06:37.624Z,9.44
2019-04-05T05:09:39.892Z,9.43
2019-04-05T05:12:42.429Z,9.42
2019-04-05T05:15:44.353Z,9.50
2019-04-05T05:18:46.681Z,9.59
2019-04-05T05:21:49.184Z,9.59
2019-04-05T05:24:52.375Z,9.72
2019-04-05T05:27:54.511Z,9.89
2019-04-05T05:30:58.465Z,10.07
2019-04-05T05:34:00.515Z,10.21
2019-04-05T05:37:02.512Z,10.25
2019-04-05T05:40:06.746Z,10.27
2019-04-05T05:43:08.835Z,10.54
2019-04-05T05:46:10.787Z,12.15
2019-04-05T05:49:12.751Z,13.71
2019-04-05T05:52:15.200Z,14.79
2019-04-05T05:55:17.208Z,15.99
2019-04-05T05:58:19.862Z,16.59
2019-04-05T06:01:21.816Z,17.18
2019-04-05T06:04:23.754Z,17.49
2019-04-05T06:07:25.769Z,17.87
2019-04-05T06:10:27.711Z,18.47
2019-04-05T06:13:29.799Z,18.73
2019-04-05T06:16:31.710Z,18.79
2019-04-05T06:19:33.663Z,18.86
2019-04-05T06:22:36.581Z,19.27
2019-04-05T06:25:38.542Z,19.00
2019-04-05T06:28:40.478Z,17.85
2019-04-05T06:31:42.641Z,16.79
2019-04-05T06:34:44.532Z,16.02
2019-04-05T06:37:46.580Z,16.60
2019-04-05T06:40:48.505Z,17.87
2019-04-05T06:43:50.716Z,18.50
2019-04-05T06:46:52.603Z,18.99
2019-04-05T06:49:54.639Z,19.14
2019-04-05T06:52:56.576Z,18.97
2019-04-05T06:55:59.965Z,19.42
2019-04-05T06:59:03.309Z,19.61
2019-04-05T07:02:05.439Z,19.68
2019-04-05T07:05:08.550Z,19.62
2019-04-05T07:08:11.659Z,19.90
2019-04-05T07:11:13.594Z,19.97
2019-04-05T07:14:15.687Z,20.15
2019-04-05T07:17:17.692Z,20.10
2019-04-05T07:20:19.632Z,20.02
2019-04-05T07:23:21.640Z,20.10
2019-04-05T07:26:23.722Z,19.98
2019-04-05T07:29:25.630Z,20.00
2019-04-05T07:32:27.606Z,20.12
2019-04-05T07:35:33.688Z,20.99
2019-04-05T07:38:34.407Z,21.32
2019-04-05T07:41:36.418Z,21.37
2019-04-05T07:44:38.547Z,21.52
2019-04-05T07:47:40.553Z,21.85
2019-04-05T07:50:42.511Z,21.85
2019-04-05T07:53:44.579Z,22.06
2019-04-05T07:56:46.551Z,21.94
2019-04-05T07:59:48.594Z,21.93
2019-04-05T08:02:50.573Z,21.58
2019-04-05T08:05:52.652Z,21.20
2019-04-05T08:08:58.229Z,21.57
2019-04-05T08:12:00.298Z,21.23
2019-04-05T08:15:04.755Z,20.71
2019-04-05T08:18:06.648Z,20.64
2019-04-05T08:21:08.698Z,20.53
2019-04-05T08:24:10.632Z,20.46
2019-04-05T08:27:13.804Z,19.93
2019-04-05T08:30:15.816Z,19.93
2019-04-05T08:33:17.989Z,19.76
2019-04-05T08:36:19.952Z,19.61
2019-04-05T08:39:21.929Z,19.61
2019-04-05T08:42:23.888Z,19.67
2019-04-05T08:45:25.991Z,19.88
2019-04-05T08:48:27.915Z,19.91
2019-04-05T08:51:29.991Z,19.88
2019-04-05T08:54:35.048Z,20.09
2019-04-05T08:57:35.897Z,20.09
2019-04-05T09:00:37.858Z,20.11
2019-04-05T09:03:39.846Z,20.27
2019-04-05T09:06:42.916Z,20.34
2019-04-05T09:09:44.884Z,20.30
2019-04-05T09:12:46.822Z,20.34
2019-04-05T09:15:48.884Z,20.29
2019-04-05T09:18:50.779Z,20.04
2019-04-05T09:21:52.750Z,19.86
2019-04-05T09:24:54.695Z,19.91
2019-04-05T09:27:56.713Z,19.91
2019-04-05T09:30:59.916Z,19.89
2019-04-05T09:34:01.853Z,19.96
2019-04-05T09:37:03.895Z,19.92
2019-04-05T09:40:06.600Z,19.91
2019-04-05T09:43:08.537Z,20.05
2019-04-05T09:46:10.603Z,20.26
2019-04-05T09:49:12.576Z,20.28
2019-04-05T09:52:15.015Z,20.32
2019-04-05T09:55:17.010Z,20.24
2019-04-05T09:58:19.001Z,20.28
2019-04-05T10:01:20.916Z,20.21
2019-04-05T10:04:22.924Z,20.21
2019-04-05T10:07:24.911Z,20.29
2019-04-05T10:10:27.328Z,20.19
2019-04-05T10:13:29.288Z,20.17
2019-04-05T10:16:31.351Z,19.92
2019-04-05T10:19:33.309Z,19.97
2019-04-05T10:22:35.310Z,20.02
2019-04-05T10:25:37.245Z,19.87
2019-04-05T10:28:39.185Z,19.82
2019-04-05T10:31:41.199Z,19.81
2019-04-05T10:34:43.265Z,19.93
2019-04-05T10:37:45.182Z,20.03
2019-04-05T10:40:47.205Z,19.88
2019-04-05T10:43:50.245Z,19.88
2019-04-05T10:46:52.409Z,19.83
2019-04-05T10:50:02.807Z,19.95
2019-04-05T10:52:58.331Z,20.06
2019-04-05T10:56:00.339Z,20.10
2019-04-05T10:59:02.525Z,20.07
2019-04-05T11:02:04.525Z,20.54
2019-04-05T11:05:06.799Z,20.54
2019-04-05T11:08:08.763Z,20.52
2019-04-05T11:11:10.743Z,20.38
2019-04-05T11:14:14.015Z,20.36
2019-04-05T11:17:16.684Z,20.44
2019-04-05T11:20:21.752Z,20.60
2019-04-05T11:23:24.242Z,20.73
2019-04-05T11:26:26.230Z,20.50
2019-04-05T11:29:28.190Z,20.56
2019-04-05T11:32:30.205Z,20.56
2019-04-05T11:35:32.134Z,20.87
2019-04-05T11:38:34.760Z,20.86
2019-04-05T11:41:36.916Z,20.73
2019-04-05T11:44:41.099Z,20.73
2019-04-05T11:47:43.346Z,20.81
2019-04-05T11:50:45.350Z,20.81
2019-04-05T11:53:47.307Z,20.71
2019-04-05T11:56:49.325Z,20.84
2019-04-05T11:59:51.252Z,20.85
2019-04-05T12:02:58.200Z,20.98
2019-04-05T12:06:00.233Z,20.95
2019-04-05T12:09:04.272Z,20.87
2019-04-05T12:12:06.393Z,20.86
2019-04-05T12:15:08.460Z,20.96
2019-04-05T12:18:10.571Z,20.82
2019-04-05T12:21:12.543Z,20.83
2019-04-05T12:24:14.505Z,20.83
2019-04-05T12:27:16.437Z,20.91
2019-04-05T12:30:23.442Z,20.90
2019-04-05T12:33:25.467Z,20.98
2019-04-05T12:36:27.432Z,21.21
2019-04-05T12:39:29.656Z,21.06
2019-04-05T12:42:31.579Z,20.96
2019-04-05T12:45:33.602Z,21.06
2019-04-05T12:48:35.688Z,20.94
2019-04-05T12:51:37.807Z,20.99
2019-04-05T12:54:39.775Z,21.06
2019-04-05T12:57:41.808Z,21.08
2019-04-05T13:00:43.786Z,21.15
2019-04-05T13:03:45.745Z,21.18
2019-04-05T13:06:47.675Z,21.16
2019-04-05T13:09:53.854Z,21.24
2019-04-05T13:12:56.789Z,21.19
2019-04-05T13:15:59.384Z,21.15
2019-04-05T13:19:01.732Z,21.08
2019-04-05T13:22:03.639Z,21.14
2019-04-05T13:25:06.514Z,21.26
2019-04-05T13:28:13.511Z,21.18
2019-04-05T13:31:12.606Z,21.16
2019-04-05T13:34:14.606Z,21.13
2019-04-05T13:37:20.457Z,21.16
2019-04-05T13:40:21.033Z,21.18
2019-04-05T13:43:23.010Z,21.14
2019-04-05T13:46:26.252Z,21.17
2019-04-05T13:49:28.537Z,21.10
2019-04-05T13:52:30.566Z,21.25
2019-04-05T13:55:32.734Z,21.27
2019-04-05T13:58:34.719Z,21.43
2019-04-05T14:01:36.766Z,21.77
2019-04-05T14:04:38.850Z,21.81
2019-04-05T14:07:40.827Z,21.79
2019-04-05T14:10:42.852Z,21.87
2019-04-05T14:13:44.815Z,21.82
2019-04-05T14:16:46.813Z,21.56
2019-04-05T14:19:49.572Z,21.61
2019-04-05T14:22:53.143Z,21.65
2019-04-05T14:25:59.379Z,21.65
2019-04-05T14:29:03.445Z,21.52
2019-04-05T14:32:19.700Z,21.65
2019-04-05T14:35:08.669Z,21.63
2019-04-05T14:38:11.842Z,21.77
2019-04-05T14:41:14.936Z,21.71
2019-04-05T14:44:16.930Z,21.73
2019-04-05T14:47:19.964Z,21.89
2019-04-05T14:50:22.404Z,22.07
2019-04-05T14:53:24.352Z,22.17
2019-04-05T14:56:26.816Z,22.08
2019-04-05T14:59:32.668Z,22.01
2019-04-05T15:02:34.123Z,22.00
2019-04-05T15:05:36.126Z,21.88
2019-04-05T15:08:38.039Z,21.76
2019-04-05T15:11:40.042Z,21.58
2019-04-05T15:14:42.061Z,21.47
2019-04-05T15:17:48.302Z,21.34
2019-04-05T15:20:48.103Z,21.24
2019-04-05T15:23:50.083Z,21.18
2019-04-05T15:26:52.219Z,21.07
2019-04-05T15:29:55.650Z,21.04
2019-04-05T15:33:00.047Z,21.21
2019-04-05T15:36:03.076Z,21.06
2019-04-05T15:39:07.732Z,21.06
2019-04-05T15:42:11.409Z,21.18
2019-04-05T15:45:16.107Z,21.15
2019-04-05T15:48:17.548Z,21.05
2019-04-05T15:51:19.676Z,21.04
2019-04-05T15:54:21.608Z,20.99
2019-04-05T15:57:23.587Z,20.86
2019-04-05T16:00:33.725Z,20.76
2019-04-05T16:03:37.054Z,20.58
2019-04-05T16:06:39.347Z,20.47
2019-04-05T16:09:41.328Z,20.22
2019-04-05T16:12:43.319Z,20.10
2019-04-05T16:15:45.265Z,20.10
2019-04-05T16:18:47.275Z,20.08
2019-04-05T16:21:49.334Z,19.97
2019-04-05T16:24:51.332Z,19.82
2019-04-05T16:27:53.302Z,19.72
2019-04-05T16:30:55.231Z,19.55
2019-04-05T16:33:57.252Z,19.28
2019-04-05T16:36:59.249Z,19.25
2019-04-05T16:40:01.369Z,19.27
2019-04-05T16:43:05.037Z,19.24
2019-04-05T16:46:06.999Z,19.23
2019-04-05T16:49:08.928Z,19.17
2019-04-05T16:52:11.017Z,19.09
2019-04-05T16:55:13.012Z,18.72
2019-04-05T16:58:15.136Z,18.51
2019-04-05T17:01:27.020Z,18.54
2019-04-05T17:04:21.043Z,18.55
2019-04-05T17:07:23.049Z,18.42
2019-04-05T17:10:24.996Z,18.35
2019-04-05T17:13:26.975Z,18.14
2019-04-05T17:16:28.941Z,18.22
2019-04-05T17:19:31.292Z,18.23
2019-04-05T17:22:33.305Z,18.30
2019-04-05T17:25:35.264Z,18.36
2019-04-05T17:28:37.196Z,18.47
2019-04-05T17:31:39.156Z,18.54
2019-04-05T17:34:42.442Z,18.55
2019-04-05T17:37:44.388Z,18.50
2019-04-05T17:40:46.406Z,18.46
2019-04-05T17:43:50.290Z,18.37
2019-04-05T17:46:52.322Z,18.33
2019-04-05T17:49:54.276Z,18.29
2019-04-05T17:52:56.437Z,18.25
2019-04-05T17:55:59.109Z,18.18
2019-04-05T17:59:02.408Z,18.14
2019-04-05T18:02:04.465Z,18.06
2019-04-05T18:05:07.318Z,17.93
2019-04-05T18:08:09.743Z,17.86
2019-04-05T18:11:12.923Z,17.81
2019-04-05T18:14:14.855Z,17.73
2019-04-05T18:17:16.762Z,17.70
2019-04-05T18:20:18.897Z,17.64
2019-04-05T18:23:25.388Z,17.60
2019-04-05T18:26:26.210Z,17.59
2019-04-05T18:29:28.222Z,17.52
2019-04-05T18:32:31.371Z,17.50
2019-04-05T18:35:33.533Z,17.49
2019-04-05T18:38:35.617Z,17.49
2019-04-05T18:41:37.581Z,17.51
2019-04-05T18:44:40.244Z,17.54
2019-04-05T18:47:42.190Z,17.54
2019-04-05T18:50:48.570Z,17.45
2019-04-05T18:53:52.954Z,17.37
2019-04-05T18:56:57.877Z,17.33
2019-04-05T18:59:59.834Z,17.28
2019-04-05T19:03:02.080Z,17.25
2019-04-05T19:06:04.575Z,17.36
2019-04-05T19:09:11.589Z,17.43
2019-04-05T19:12:14.681Z,17.43
2019-04-05T19:15:18.039Z,17.40
2019-04-05T19:18:21.599Z,17.35
2019-04-05T19:21:23.730Z,17.26
2019-04-05T19:24:25.809Z,17.17
2019-04-05T19:27:30.550Z,17.06
2019-04-05T19:48:59.764Z,16.69
2019-04-05T19:52:03.605Z,16.62
2019-04-05T19:55:06.981Z,16.54
2019-04-05T19:58:09.229Z,16.46
2019-04-05T20:01:13.019Z,16.47
2019-04-05T20:04:15.003Z,16.50
2019-04-05T20:07:16.982Z,16.12
2019-04-05T20:10:21.030Z,15.96
2019-04-05T20:13:23.329Z,15.89
2019-04-05T20:16:28.619Z,15.83
2019-04-05T20:19:30.934Z,15.78
2019-04-05T20:22:32.909Z,15.78
2019-04-05T20:25:34.922Z,15.77
2019-04-05T20:28:36.972Z,15.73
2019-04-05T20:31:38.925Z,15.71
2019-04-05T20:34:40.957Z,15.67
2019-04-05T20:37:42.979Z,15.60
2019-04-05T20:40:44.937Z,15.49
2019-04-05T20:43:46.928Z,15.39
2019-04-05T20:46:48.840Z,15.30
2019-04-05T20:49:50.783Z,15.23
2019-04-05T20:52:52.795Z,15.20
2019-04-05T20:55:54.998Z,15.14
2019-04-05T20:58:56.945Z,15.09
2019-04-05T21:01:58.921Z,15.02
2019-04-05T21:05:00.914Z,14.97
2019-04-05T21:08:02.859Z,14.92
2019-04-05T21:11:04.870Z,14.88
2019-04-05T21:14:06.795Z,14.83
2019-04-05T21:17:08.801Z,14.75
2019-04-05T21:20:11.322Z,14.69
2019-04-05T21:23:14.448Z,14.65
2019-04-05T21:26:17.606Z,14.59
2019-04-05T21:29:19.575Z,14.55
2019-04-05T21:32:21.570Z,14.52
2019-04-05T21:35:23.508Z,14.52
2019-04-05T21:38:25.433Z,14.50
2019-04-05T21:41:27.371Z,14.47
2019-04-05T21:44:29.371Z,14.43
2019-04-05T21:47:31.266Z,14.34
2019-04-05T21:50:33.228Z,14.30
2019-04-05T21:53:35.145Z,14.23
2019-04-05T21:56:37.312Z,14.14
2019-04-05T21:59:39.309Z,14.06
2019-04-05T22:02:41.448Z,13.98
2019-04-05T22:05:43.399Z,13.89
2019-04-05T22:08:45.348Z,13.80
2019-04-05T22:11:47.319Z,13.59
2019-04-05T22:14:49.384Z,13.48
2019-04-05T22:17:51.323Z,13.43
2019-04-05T22:20:53.837Z,13.29
2019-04-05T22:23:55.875Z,13.22
2019-04-05T22:26:57.925Z,13.13
2019-04-05T22:30:01.384Z,13.08
2019-04-05T22:33:03.376Z,13.04
2019-04-05T22:36:05.315Z,13.00
2019-04-05T22:39:07.294Z,12.93
2019-04-05T22:42:09.799Z,12.85
2019-04-05T22:45:11.716Z,12.79
2019-04-05T22:48:13.755Z,12.76
2019-04-05T22:51:15.703Z,12.72
2019-04-05T22:54:18.023Z,12.70
2019-04-05T22:57:20.401Z,12.66
2019-04-05T23:00:22.575Z,12.50
2019-04-05T23:03:24.605Z,12.30
2019-04-05T23:06:26.625Z,12.14
2019-04-05T23:09:28.722Z,12.11
2019-04-05T23:12:30.761Z,12.06
2019-04-05T23:15:32.711Z,11.87
2019-04-05T23:18:34.703Z,11.73
2019-04-05T23:21:36.580Z,11.65
2019-04-05T23:24:38.501Z,11.65
2019-04-05T23:27:40.533Z,11.61
2019-04-05T23:30:43.425Z,11.58
2019-04-05T23:33:45.375Z,11.57
2019-04-05T23:36:47.341Z,11.58
2019-04-05T23:39:49.345Z,11.61
2019-04-05T23:42:51.277Z,11.64
2019-04-05T23:45:53.225Z,11.48
2019-04-05T23:48:55.233Z,11.45
2019-04-05T23:51:57.244Z,11.46
2019-04-05T23:54:59.303Z,11.49
2019-04-05T23:58:01.351Z,11.49
